Allensburg, Ohio
Current Conditions -  °F | °C
As of 11:54 PM on Tuesday 21 Oct 2014 (Local Time) from KILN Reporting Station
Overcast Overcast  
Wind Chill: 41°   Ceiling: 3200
Heat Index: 45°   Visibility: 10mi
Dew Point: 36°   Wind: 8mph
Humidity: 71%   Direction: 360°N
Pressure: 30.17"   Gusts: NA
Location:  39.1546°N, 83.569°W
Report Text: KILN 220354Z AUTO 36007KT 10SM OVC032 07/02 A3017 RMK AO2 SLP227 T00720022
Loading
Personal Weather Stations






























Interactive Weather Map
Tropical Storm Tracking
New forecast layout! Learn more

10-Day Weather Forecast

Advertisements
Track Severe Weather on mobile